ACA660 CYUL-CYHZ
Flight info
| Callsign | ACA660 |
|---|---|
| Flight time | 1h 8m |
| Altitude | 39000 |
| Route | SUXET DCT NOVUN DCT ESRAM DCT RABIK Q951 ANTOV DCT EBONY FUNDY5 |
| Aircraft | B38M/M-SDE1FGHILORVWXY/HB1 |
Departure
| Time | 2026-05-04 23:08 |
|---|---|
| Airport | Montreal / Pierre Elliott Trudeau International Airport (CYUL) |
Arrival
| Time | 2026-05-05 00:16 |
|---|---|
| Airport | Halifax / Stanfield International Airport (CYHZ) |
| Time | Latitude | Longitude | Altitude | Speed | Heading |
|---|---|---|---|---|---|
| 2026-05-04 22:49 | 45.45893 | -73.74389 | 107 ft | 0 kts | 205° |
| 2026-05-04 22:58 | 45.45897 | -73.74386 | 107 ft | 3 kts | 205° |
| 2026-05-04 22:58 | 45.45916 | -73.74374 | 107 ft | 3 kts | 205° |
| 2026-05-04 22:58 | 45.45934 | -73.74361 | 106 ft | 3 kts | 209° |
| 2026-05-04 22:58 | 45.45951 | -73.74346 | 105 ft | 3 kts | 223° |
| 2026-05-04 22:59 | 45.45960 | -73.74327 | 106 ft | 3 kts | 268° |
| 2026-05-04 22:59 | 45.45959 | -73.74317 | 105 ft | 0 kts | 311° |
| 2026-05-04 23:01 | 45.45960 | -73.74319 | 105 ft | 1 kts | 311° |
| 2026-05-04 23:01 | 45.45971 | -73.74336 | 106 ft | 4 kts | 316° |
| 2026-05-04 23:01 | 45.46006 | -73.74359 | 104 ft | 7 kts | 354° |
| 2026-05-04 23:01 | 45.46049 | -73.74323 | 104 ft | 9 kts | 47° |
| 2026-05-04 23:02 | 45.46095 | -73.74252 | 105 ft | 8 kts | 46° |
| 2026-05-04 23:02 | 45.46135 | -73.74183 | 106 ft | 9 kts | 70° |
| 2026-05-04 23:02 | 45.46140 | -73.74104 | 107 ft | 9 kts | 85° |
| 2026-05-04 23:02 | 45.46166 | -73.74023 | 107 ft | 10 kts | 45° |
| 2026-05-04 23:03 | 45.46227 | -73.73947 | 107 ft | 13 kts | 40° |
| 2026-05-04 23:03 | 45.46299 | -73.73849 | 108 ft | 15 kts | 43° |
| 2026-05-04 23:03 | 45.46381 | -73.73740 | 110 ft | 17 kts | 43° |
| 2026-05-04 23:03 | 45.46474 | -73.73619 | 108 ft | 19 kts | 43° |
| 2026-05-04 23:04 | 45.46576 | -73.73485 | 113 ft | 21 kts | 43° |
| 2026-05-04 23:04 | 45.46687 | -73.73339 | 115 ft | 23 kts | 42° |
| 2026-05-04 23:04 | 45.46808 | -73.73180 | 116 ft | 24 kts | 43° |
| 2026-05-04 23:04 | 45.46936 | -73.73013 | 118 ft | 26 kts | 42° |
| 2026-05-04 23:05 | 45.47073 | -73.72835 | 120 ft | 27 kts | 42° |
| 2026-05-04 23:05 | 45.47216 | -73.72646 | 119 ft | 29 kts | 43° |
| 2026-05-04 23:05 | 45.47370 | -73.72444 | 122 ft | 31 kts | 43° |
| 2026-05-04 23:05 | 45.47533 | -73.72230 | 123 ft | 33 kts | 42° |
| 2026-05-04 23:06 | 45.47699 | -73.72012 | 124 ft | 31 kts | 43° |
| 2026-05-04 23:06 | 45.47806 | -73.71873 | 123 ft | 16 kts | 42° |
| 2026-05-04 23:06 | 45.47871 | -73.71775 | 124 ft | 11 kts | 69° |
| 2026-05-04 23:06 | 45.47848 | -73.71686 | 124 ft | 11 kts | 130° |
| 2026-05-04 23:07 | 45.47786 | -73.71591 | 125 ft | 13 kts | 133° |
| 2026-05-04 23:07 | 45.47725 | -73.71572 | 127 ft | 13 kts | 218° |
| 2026-05-04 23:07 | 45.47565 | -73.71785 | 124 ft | 61 kts | 223° |
| 2026-05-04 23:07 | 45.47106 | -73.72385 | 118 ft | 116 kts | 223° |
| 2026-05-04 23:08 | 45.46400 | -73.73312 | 115 ft | 158 kts | 223° |
| 2026-05-04 23:08 | 45.45552 | -73.74431 | 389 ft | 171 kts | 224° |
| 2026-05-04 23:08 | 45.44671 | -73.75613 | 951 ft | 173 kts | 224° |
| 2026-05-04 23:08 | 45.43808 | -73.76785 | 1631 ft | 169 kts | 224° |
| 2026-05-04 23:09 | 45.42938 | -73.77812 | 2594 ft | 162 kts | 206° |
| 2026-05-04 23:09 | 45.41830 | -73.78022 | 3589 ft | 172 kts | 178° |
| 2026-05-04 23:09 | 45.40647 | -73.77289 | 4211 ft | 204 kts | 142° |
| 2026-05-04 23:09 | 45.39845 | -73.75437 | 4836 ft | 237 kts | 114° |
| 2026-05-04 23:10 | 45.39162 | -73.73197 | 5637 ft | 256 kts | 117° |
| 2026-05-04 23:10 | 45.38403 | -73.70851 | 6597 ft | 266 kts | 117° |
| 2026-05-04 23:10 | 45.37614 | -73.68428 | 7618 ft | 274 kts | 117° |
| 2026-05-04 23:10 | 45.36799 | -73.65946 | 8669 ft | 282 kts | 118° |
| 2026-05-04 23:11 | 45.35937 | -73.63343 | 9477 ft | 299 kts | 118° |
| 2026-05-04 23:11 | 45.35031 | -73.60609 | 10308 ft | 312 kts | 117° |
| 2026-05-04 23:11 | 45.34081 | -73.57739 | 11046 ft | 330 kts | 117° |
| 2026-05-04 23:11 | 45.33084 | -73.54730 | 11824 ft | 342 kts | 117° |
| 2026-05-04 23:12 | 45.32069 | -73.51656 | 12598 ft | 353 kts | 117° |
| 2026-05-04 23:12 | 45.31013 | -73.48456 | 13438 ft | 360 kts | 117° |
| 2026-05-04 23:12 | 45.29942 | -73.45204 | 14315 ft | 366 kts | 116° |
| 2026-05-04 23:12 | 45.28854 | -73.41902 | 15158 ft | 371 kts | 116° |
| 2026-05-04 23:13 | 45.27751 | -73.38557 | 15961 ft | 378 kts | 116° |
| 2026-05-04 23:13 | 45.26627 | -73.35154 | 16749 ft | 383 kts | 116° |
| 2026-05-04 23:13 | 45.25487 | -73.31705 | 17490 ft | 388 kts | 116° |
| 2026-05-04 23:13 | 45.24333 | -73.28215 | 18164 ft | 393 kts | 116° |
| 2026-05-04 23:14 | 45.23164 | -73.24691 | 18839 ft | 397 kts | 116° |
| 2026-05-04 23:14 | 45.21975 | -73.21115 | 19494 ft | 402 kts | 116° |
| 2026-05-04 23:14 | 45.20926 | -73.17426 | 20178 ft | 406 kts | 103° |
| 2026-05-04 23:14 | 45.20641 | -73.13464 | 20835 ft | 405 kts | 85° |
| 2026-05-04 23:15 | 45.20717 | -73.09439 | 21433 ft | 410 kts | 85° |
| 2026-05-04 23:15 | 45.20800 | -73.05432 | 22035 ft | 414 kts | 84° |
| 2026-05-04 23:15 | 45.20975 | -73.01341 | 22621 ft | 414 kts | 75° |
| 2026-05-04 23:15 | 45.21849 | -72.97511 | 23223 ft | 405 kts | 57° |
| 2026-05-04 23:16 | 45.23177 | -72.93985 | 23737 ft | 408 kts | 54° |
| 2026-05-04 23:16 | 45.24542 | -72.90438 | 24291 ft | 411 kts | 54° |
| 2026-05-04 23:16 | 45.25937 | -72.86866 | 24851 ft | 413 kts | 53° |
| 2026-05-04 23:16 | 45.27348 | -72.83283 | 25414 ft | 415 kts | 53° |
| 2026-05-04 23:17 | 45.28659 | -72.79587 | 25939 ft | 426 kts | 64° |
| 2026-05-04 23:17 | 45.29258 | -72.75421 | 26540 ft | 437 kts | 81° |
| 2026-05-04 23:17 | 45.29451 | -72.71090 | 27003 ft | 441 kts | 80° |
| 2026-05-04 23:17 | 45.29649 | -72.66786 | 27461 ft | 444 kts | 81° |
| 2026-05-04 23:18 | 45.29834 | -72.62407 | 27974 ft | 445 kts | 80° |
| 2026-05-04 23:18 | 45.30084 | -72.58003 | 28397 ft | 447 kts | 78° |
| 2026-05-04 23:18 | 45.30337 | -72.53584 | 28827 ft | 450 kts | 79° |
| 2026-05-04 23:18 | 45.30582 | -72.49148 | 29291 ft | 451 kts | 78° |
| 2026-05-04 23:19 | 45.30825 | -72.44699 | 29723 ft | 453 kts | 78° |
| 2026-05-04 23:19 | 45.31066 | -72.40231 | 30129 ft | 455 kts | 78° |
| 2026-05-04 23:19 | 45.31308 | -72.35730 | 30498 ft | 458 kts | 78° |
| 2026-05-04 23:19 | 45.31549 | -72.31198 | 30865 ft | 461 kts | 78° |
| 2026-05-04 23:20 | 45.31789 | -72.26653 | 31247 ft | 463 kts | 79° |
| 2026-05-04 23:20 | 45.32030 | -72.22067 | 31536 ft | 467 kts | 79° |
| 2026-05-04 23:20 | 45.32270 | -72.17458 | 31888 ft | 469 kts | 79° |
| 2026-05-04 23:20 | 45.32507 | -72.12875 | 32165 ft | 473 kts | 79° |
| 2026-05-04 23:21 | 45.32746 | -72.08201 | 32459 ft | 476 kts | 80° |
| 2026-05-04 23:21 | 45.32985 | -72.03500 | 32799 ft | 478 kts | 80° |
| 2026-05-04 23:21 | 45.33223 | -71.98769 | 33085 ft | 482 kts | 80° |
| 2026-05-04 23:21 | 45.33462 | -71.94001 | 33384 ft | 484 kts | 81° |
| 2026-05-04 23:22 | 45.33701 | -71.89211 | 33679 ft | 487 kts | 81° |
| 2026-05-04 23:22 | 45.34106 | -71.84439 | 33951 ft | 485 kts | 74° |
| 2026-05-04 23:22 | 45.34684 | -71.79687 | 34223 ft | 489 kts | 76° |
| 2026-05-04 23:22 | 45.35221 | -71.74897 | 34507 ft | 492 kts | 76° |
| 2026-05-04 23:23 | 45.35743 | -71.70075 | 34785 ft | 495 kts | 77° |
| 2026-05-04 23:23 | 45.36261 | -71.65215 | 35069 ft | 498 kts | 77° |
| 2026-05-04 23:23 | 45.36775 | -71.60352 | 35464 ft | 497 kts | 78° |
| 2026-05-04 23:23 | 45.37287 | -71.55504 | 35851 ft | 496 kts | 78° |
| 2026-05-04 23:24 | 45.37791 | -71.50711 | 36220 ft | 495 kts | 78° |
| 2026-05-04 23:24 | 45.38298 | -71.45868 | 36569 ft | 495 kts | 79° |
| 2026-05-04 23:24 | 45.38805 | -71.41016 | 36845 ft | 496 kts | 79° |
| 2026-05-04 23:24 | 45.39308 | -71.36164 | 37214 ft | 494 kts | 79° |
| 2026-05-04 23:25 | 45.39805 | -71.31347 | 37663 ft | 489 kts | 79° |
| 2026-05-04 23:25 | 45.40297 | -71.26564 | 38037 ft | 487 kts | 80° |
| 2026-05-04 23:25 | 45.40786 | -71.21790 | 38277 ft | 487 kts | 80° |
| 2026-05-04 23:25 | 45.41273 | -71.17017 | 38506 ft | 488 kts | 80° |
| 2026-05-04 23:26 | 45.41759 | -71.12233 | 38710 ft | 488 kts | 81° |
| 2026-05-04 23:26 | 45.42246 | -71.07441 | 38778 ft | 489 kts | 81° |
| 2026-05-04 23:26 | 45.42563 | -71.02629 | 38742 ft | 488 kts | 92° |
| 2026-05-04 23:26 | 45.42144 | -70.97862 | 38795 ft | 485 kts | 100° |
| 2026-05-04 23:27 | 45.41089 | -70.88309 | 38753 ft | 488 kts | 99° |
| 2026-05-04 23:27 | 45.39973 | -70.78818 | 38756 ft | 489 kts | 100° |
| 2026-05-04 23:28 | 45.38825 | -70.69285 | 38774 ft | 489 kts | 100° |
| 2026-05-04 23:28 | 45.37669 | -70.59750 | 38769 ft | 489 kts | 100° |
| 2026-05-04 23:29 | 45.36503 | -70.50206 | 38780 ft | 489 kts | 100° |
| 2026-05-04 23:29 | 45.35330 | -70.40681 | 38777 ft | 489 kts | 101° |
| 2026-05-04 23:30 | 45.34149 | -70.31156 | 38774 ft | 488 kts | 101° |
| 2026-05-04 23:30 | 45.32962 | -70.21649 | 38763 ft | 488 kts | 101° |
| 2026-05-04 23:31 | 45.31765 | -70.12122 | 38771 ft | 489 kts | 101° |
| 2026-05-04 23:31 | 45.30571 | -70.02677 | 38758 ft | 489 kts | 101° |
| 2026-05-04 23:32 | 45.29356 | -69.93167 | 38769 ft | 489 kts | 101° |
| 2026-05-04 23:32 | 45.28135 | -69.83652 | 38765 ft | 489 kts | 101° |
| 2026-05-04 23:33 | 45.26906 | -69.74148 | 38751 ft | 490 kts | 101° |
| 2026-05-04 23:33 | 45.25667 | -69.64620 | 38758 ft | 490 kts | 102° |
| 2026-05-04 23:34 | 45.24419 | -69.55100 | 38757 ft | 490 kts | 102° |
| 2026-05-04 23:34 | 45.23172 | -69.45650 | 38764 ft | 491 kts | 102° |
| 2026-05-04 23:35 | 45.21906 | -69.36122 | 38780 ft | 491 kts | 102° |
| 2026-05-04 23:35 | 45.20635 | -69.26611 | 38768 ft | 491 kts | 102° |
| 2026-05-04 23:36 | 45.19353 | -69.17081 | 38764 ft | 491 kts | 102° |
| 2026-05-04 23:36 | 45.18063 | -69.07562 | 38772 ft | 492 kts | 102° |
| 2026-05-04 23:37 | 45.16763 | -68.98032 | 38775 ft | 492 kts | 102° |
| 2026-05-04 23:37 | 45.15456 | -68.88509 | 38774 ft | 492 kts | 103° |
| 2026-05-04 23:38 | 45.14141 | -68.78987 | 38786 ft | 493 kts | 103° |
| 2026-05-04 23:38 | 45.13040 | -68.71068 | 38783 ft | 493 kts | 103° |
| 2026-05-04 23:39 | 45.11491 | -68.59991 | 38788 ft | 493 kts | 103° |
| 2026-05-04 23:39 | 45.10147 | -68.50454 | 38794 ft | 494 kts | 103° |
| 2026-05-04 23:40 | 45.09024 | -68.42523 | 38794 ft | 494 kts | 103° |
| 2026-05-04 23:40 | 45.07666 | -68.32996 | 38788 ft | 493 kts | 103° |
| 2026-05-04 23:41 | 45.06301 | -68.23476 | 38787 ft | 494 kts | 103° |
| 2026-05-04 23:41 | 45.04928 | -68.13959 | 38793 ft | 494 kts | 103° |
| 2026-05-04 23:42 | 45.03545 | -68.04431 | 38792 ft | 494 kts | 104° |
| 2026-05-04 23:42 | 45.02155 | -67.94918 | 38798 ft | 494 kts | 104° |
| 2026-05-04 23:43 | 45.00752 | -67.85374 | 38796 ft | 496 kts | 104° |
| 2026-05-04 23:43 | 44.99340 | -67.75830 | 38798 ft | 496 kts | 104° |
| 2026-05-04 23:44 | 44.97930 | -67.66353 | 38787 ft | 496 kts | 104° |
| 2026-05-04 23:44 | 44.96503 | -67.56821 | 38785 ft | 496 kts | 104° |
| 2026-05-04 23:45 | 44.95070 | -67.47294 | 38785 ft | 496 kts | 104° |
| 2026-05-04 23:45 | 44.93629 | -67.37764 | 38776 ft | 496 kts | 104° |
| 2026-05-04 23:46 | 44.92182 | -67.28249 | 38783 ft | 496 kts | 105° |
| 2026-05-04 23:46 | 44.90726 | -67.18728 | 38784 ft | 497 kts | 105° |
| 2026-05-04 23:47 | 44.90245 | -67.13897 | 38761 ft | 499 kts | 92° |
| 2026-05-04 23:47 | 44.90278 | -67.09006 | 38795 ft | 500 kts | 92° |
| 2026-05-04 23:47 | 44.90232 | -66.99186 | 38795 ft | 500 kts | 91° |
| 2026-05-04 23:48 | 44.90211 | -66.89364 | 38782 ft | 501 kts | 91° |
| 2026-05-04 23:48 | 44.90183 | -66.79529 | 38787 ft | 501 kts | 92° |
| 2026-05-04 23:49 | 44.90148 | -66.69694 | 38794 ft | 502 kts | 92° |
| 2026-05-04 23:49 | 44.90104 | -66.59860 | 38189 ft | 501 kts | 92° |
| 2026-05-04 23:50 | 44.90079 | -66.54968 | 37159 ft | 509 kts | 92° |
| 2026-05-04 23:50 | 44.90051 | -66.49940 | 36308 ft | 513 kts | 92° |
| 2026-05-04 23:50 | 44.90021 | -66.44936 | 35836 ft | 506 kts | 92° |
| 2026-05-04 23:50 | 44.89990 | -66.39997 | 35474 ft | 498 kts | 92° |
| 2026-05-04 23:51 | 44.89957 | -66.35128 | 35015 ft | 493 kts | 92° |
| 2026-05-04 23:51 | 44.89921 | -66.30292 | 34424 ft | 492 kts | 92° |
| 2026-05-04 23:51 | 44.89884 | -66.25469 | 33820 ft | 491 kts | 92° |
| 2026-05-04 23:51 | 44.89845 | -66.20666 | 33276 ft | 489 kts | 92° |
| 2026-05-04 23:52 | 44.89805 | -66.15886 | 32757 ft | 485 kts | 92° |
| 2026-05-04 23:52 | 44.89762 | -66.11138 | 32235 ft | 482 kts | 92° |
| 2026-05-04 23:52 | 44.89719 | -66.06481 | 31709 ft | 480 kts | 92° |
| 2026-05-04 23:52 | 44.89673 | -66.01791 | 31176 ft | 477 kts | 92° |
| 2026-05-04 23:53 | 44.89625 | -65.97113 | 30648 ft | 475 kts | 92° |
| 2026-05-04 23:53 | 44.89576 | -65.92460 | 30126 ft | 472 kts | 93° |
| 2026-05-04 23:53 | 44.89525 | -65.87839 | 29610 ft | 470 kts | 93° |
| 2026-05-04 23:53 | 44.89473 | -65.83239 | 29097 ft | 467 kts | 92° |
| 2026-05-04 23:54 | 44.89419 | -65.78666 | 28592 ft | 464 kts | 92° |
| 2026-05-04 23:54 | 44.89364 | -65.74126 | 28092 ft | 462 kts | 92° |
| 2026-05-04 23:54 | 44.89308 | -65.69659 | 27603 ft | 459 kts | 92° |
| 2026-05-04 23:54 | 44.89250 | -65.65158 | 27116 ft | 456 kts | 92° |
| 2026-05-04 23:55 | 44.89191 | -65.60689 | 26635 ft | 454 kts | 92° |
| 2026-05-04 23:55 | 44.89131 | -65.56257 | 26159 ft | 451 kts | 92° |
| 2026-05-04 23:55 | 44.89004 | -65.47469 | 25162 ft | 446 kts | 92° |
| 2026-05-04 23:56 | 44.88938 | -65.43115 | 24717 ft | 439 kts | 92° |
| 2026-05-04 23:56 | 44.88872 | -65.38881 | 24297 ft | 425 kts | 92° |
| 2026-05-04 23:56 | 44.88808 | -65.34770 | 23874 ft | 414 kts | 92° |
| 2026-05-04 23:56 | 44.88743 | -65.30765 | 23433 ft | 404 kts | 92° |
| 2026-05-04 23:57 | 44.88680 | -65.26849 | 23005 ft | 394 kts | 93° |
| 2026-05-04 23:57 | 44.88615 | -65.23026 | 22599 ft | 385 kts | 93° |
| 2026-05-04 23:57 | 44.88551 | -65.19287 | 22189 ft | 376 kts | 93° |
| 2026-05-04 23:57 | 44.88489 | -65.15683 | 21800 ft | 368 kts | 93° |
| 2026-05-04 23:58 | 44.88426 | -65.12117 | 21410 ft | 360 kts | 93° |
| 2026-05-04 23:58 | 44.88362 | -65.08604 | 21042 ft | 360 kts | 93° |
| 2026-05-04 23:58 | 44.88296 | -65.05034 | 20652 ft | 366 kts | 93° |
| 2026-05-04 23:58 | 44.88229 | -65.01425 | 20256 ft | 369 kts | 93° |
| 2026-05-04 23:59 | 44.88160 | -64.97807 | 19882 ft | 370 kts | 93° |
| 2026-05-04 23:59 | 44.88090 | -64.94168 | 19472 ft | 371 kts | 93° |
| 2026-05-04 23:59 | 44.88020 | -64.90533 | 19077 ft | 371 kts | 93° |
| 2026-05-04 23:59 | 44.87947 | -64.86897 | 18675 ft | 371 kts | 93° |
| 2026-05-05 00:00 | 44.87873 | -64.83262 | 18285 ft | 371 kts | 93° |
| 2026-05-05 00:00 | 44.87848 | -64.82074 | 18154 ft | 371 kts | 93° |
| 2026-05-05 00:00 | 44.87723 | -64.76023 | 17563 ft | 369 kts | 93° |
| 2026-05-05 00:00 | 44.87647 | -64.72430 | 17267 ft | 365 kts | 93° |
| 2026-05-05 00:01 | 44.87571 | -64.68857 | 16907 ft | 364 kts | 94° |
| 2026-05-05 00:01 | 44.87572 | -64.65308 | 16712 ft | 357 kts | 83° |
| 2026-05-05 00:01 | 44.88127 | -64.61987 | 16727 ft | 341 kts | 73° |
| 2026-05-05 00:01 | 44.88722 | -64.58815 | 16713 ft | 330 kts | 75° |
| 2026-05-05 00:02 | 44.89287 | -64.55641 | 16684 ft | 339 kts | 75° |
| 2026-05-05 00:02 | 44.89848 | -64.52415 | 16305 ft | 341 kts | 76° |
| 2026-05-05 00:02 | 44.90411 | -64.49125 | 15758 ft | 348 kts | 76° |
| 2026-05-05 00:02 | 44.90973 | -64.45811 | 15462 ft | 345 kts | 76° |
| 2026-05-05 00:03 | 44.91529 | -64.42521 | 15146 ft | 344 kts | 76° |
| 2026-05-05 00:03 | 44.92080 | -64.39253 | 14808 ft | 342 kts | 76° |
| 2026-05-05 00:03 | 44.92629 | -64.35992 | 14498 ft | 340 kts | 75° |
| 2026-05-05 00:03 | 44.93174 | -64.32743 | 14129 ft | 340 kts | 75° |
| 2026-05-05 00:04 | 44.93717 | -64.29504 | 13805 ft | 338 kts | 75° |
| 2026-05-05 00:04 | 44.94252 | -64.26304 | 13368 ft | 342 kts | 75° |
| 2026-05-05 00:04 | 44.94804 | -64.22988 | 12794 ft | 349 kts | 76° |
| 2026-05-05 00:04 | 44.95360 | -64.19657 | 12465 ft | 347 kts | 76° |
| 2026-05-05 00:05 | 44.95912 | -64.16336 | 12114 ft | 346 kts | 76° |
| 2026-05-05 00:05 | 44.96460 | -64.13035 | 11792 ft | 345 kts | 76° |
| 2026-05-05 00:05 | 44.97006 | -64.09740 | 11454 ft | 344 kts | 76° |
| 2026-05-05 00:05 | 44.97548 | -64.06464 | 11136 ft | 342 kts | 76° |
| 2026-05-05 00:06 | 44.98085 | -64.03205 | 10807 ft | 340 kts | 76° |
| 2026-05-05 00:06 | 44.98619 | -63.99960 | 10503 ft | 338 kts | 76° |
| 2026-05-05 00:06 | 44.99148 | -63.96741 | 10173 ft | 335 kts | 76° |
| 2026-05-05 00:06 | 44.99677 | -63.93522 | 9811 ft | 335 kts | 76° |
| 2026-05-05 00:07 | 45.00201 | -63.90325 | 9504 ft | 333 kts | 76° |
| 2026-05-05 00:07 | 45.00719 | -63.87147 | 9212 ft | 330 kts | 76° |
| 2026-05-05 00:07 | 45.01236 | -63.83985 | 8855 ft | 329 kts | 76° |
| 2026-05-05 00:07 | 45.01746 | -63.80850 | 8296 ft | 327 kts | 76° |
| 2026-05-05 00:08 | 45.02254 | -63.77727 | 7679 ft | 325 kts | 76° |
| 2026-05-05 00:08 | 45.02758 | -63.74619 | 7075 ft | 325 kts | 76° |
| 2026-05-05 00:08 | 45.03262 | -63.71511 | 6488 ft | 323 kts | 76° |
| 2026-05-05 00:08 | 45.03750 | -63.68488 | 6047 ft | 316 kts | 76° |
| 2026-05-05 00:09 | 45.04231 | -63.65521 | 5749 ft | 304 kts | 76° |
| 2026-05-05 00:09 | 45.04692 | -63.62655 | 5458 ft | 293 kts | 76° |
| 2026-05-05 00:09 | 45.05136 | -63.59890 | 5213 ft | 286 kts | 76° |
| 2026-05-05 00:09 | 45.05575 | -63.57156 | 4978 ft | 284 kts | 76° |
| 2026-05-05 00:10 | 45.06009 | -63.54453 | 4874 ft | 280 kts | 76° |
| 2026-05-05 00:10 | 45.06439 | -63.51768 | 4748 ft | 279 kts | 76° |
| 2026-05-05 00:10 | 45.06862 | -63.49093 | 4585 ft | 279 kts | 78° |
| 2026-05-05 00:10 | 45.06845 | -63.46399 | 4336 ft | 270 kts | 111° |
| 2026-05-05 00:11 | 45.06018 | -63.44164 | 4144 ft | 248 kts | 133° |
| 2026-05-05 00:11 | 45.05071 | -63.42231 | 4024 ft | 238 kts | 133° |
| 2026-05-05 00:11 | 45.04115 | -63.40332 | 3969 ft | 235 kts | 139° |
| 2026-05-05 00:11 | 45.02855 | -63.39077 | 3697 ft | 213 kts | 174° |
| 2026-05-05 00:12 | 45.01467 | -63.38999 | 3406 ft | 191 kts | 204° |
| 2026-05-05 00:12 | 45.00305 | -63.39721 | 3187 ft | 179 kts | 217° |
| 2026-05-05 00:12 | 44.99176 | -63.40465 | 2947 ft | 178 kts | 215° |
| 2026-05-05 00:12 | 44.98112 | -63.41326 | 2703 ft | 175 kts | 219° |
| 2026-05-05 00:13 | 44.97111 | -63.42277 | 2471 ft | 169 kts | 221° |
| 2026-05-05 00:13 | 44.96188 | -63.43190 | 2245 ft | 152 kts | 220° |
| 2026-05-05 00:13 | 44.95367 | -63.44006 | 2045 ft | 140 kts | 222° |
| 2026-05-05 00:13 | 44.94609 | -63.44757 | 1878 ft | 128 kts | 222° |
| 2026-05-05 00:14 | 44.93900 | -63.45465 | 1689 ft | 124 kts | 221° |
| 2026-05-05 00:14 | 44.93187 | -63.46174 | 1539 ft | 128 kts | 220° |
| 2026-05-05 00:14 | 44.92462 | -63.46891 | 1337 ft | 127 kts | 219° |
| 2026-05-05 00:14 | 44.91735 | -63.47611 | 1186 ft | 128 kts | 218° |
| 2026-05-05 00:15 | 44.90998 | -63.48344 | 1017 ft | 132 kts | 220° |
| 2026-05-05 00:15 | 44.90244 | -63.49082 | 850 ft | 127 kts | 218° |
| 2026-05-05 00:15 | 44.89533 | -63.49781 | 647 ft | 125 kts | 220° |
| 2026-05-05 00:15 | 44.88836 | -63.50485 | 505 ft | 125 kts | 217° |
| 2026-05-05 00:16 | 44.88186 | -63.51126 | 452 ft | 92 kts | 215° |
| 2026-05-05 00:16 | 44.87806 | -63.51502 | 454 ft | 55 kts | 215° |
| 2026-05-05 00:16 | 44.87560 | -63.51743 | 452 ft | 27 kts | 215° |
| 2026-05-05 00:16 | 44.87456 | -63.51908 | 451 ft | 19 kts | 247° |
| 2026-05-05 00:17 | 44.87454 | -63.52053 | 454 ft | 12 kts | 290° |
| 2026-05-05 00:17 | 44.87491 | -63.52118 | 454 ft | 9 kts | 333° |
| 2026-05-05 00:17 | 44.87550 | -63.52090 | 454 ft | 11 kts | 37° |
| 2026-05-05 00:17 | 44.87618 | -63.52017 | 454 ft | 14 kts | 37° |
| 2026-05-05 00:18 | 44.87706 | -63.51928 | 454 ft | 17 kts | 34° |
| 2026-05-05 00:18 | 44.87812 | -63.51824 | 454 ft | 20 kts | 34° |
| 2026-05-05 00:18 | 44.87916 | -63.51721 | 454 ft | 19 kts | 35° |
| 2026-05-05 00:18 | 44.88031 | -63.51607 | 454 ft | 21 kts | 35° |
| 2026-05-05 00:19 | 44.88161 | -63.51479 | 454 ft | 23 kts | 35° |
| 2026-05-05 00:19 | 44.88285 | -63.51355 | 454 ft | 17 kts | 35° |
| 2026-05-05 00:19 | 44.88374 | -63.51262 | 454 ft | 16 kts | 38° |
| 2026-05-05 00:19 | 44.88446 | -63.51205 | 454 ft | 12 kts | 7° |
| 2026-05-05 00:20 | 44.88517 | -63.51217 | 454 ft | 9 kts | 350° |
| 2026-05-05 00:20 | 44.88565 | -63.51263 | 454 ft | 8 kts | 302° |
| 2026-05-05 00:20 | 44.88596 | -63.51331 | 454 ft | 6 kts | 302° |
| 2026-05-05 00:20 | 44.88609 | -63.51360 | 454 ft | 2 kts | 303° |
| 2026-05-05 00:21 | 44.88610 | -63.51362 | 454 ft | 0 kts | 303° |